• Join FlightAware (Why Join?)
  • Login
  • US Flag 
06:13AM EST


 

Airport Tracker/Info


-or-


 

Live Flight TrackerFlight Track Log ✈ SWA286 ✈ 06-Jul-2013 ✈ KDAL - KELP

Flight Track Log - Related Links

Times and Time Zones

All times are in EDT time to prevent confusion due to time zone crossing. See the SWA286 flight status page for this flight to view local times or setup timezone preferences in your user account.

Time Position Orientation Groundspeed Altitude Reporting Facility
EDT Latitude Longitude Course Direction KTS MPH feet Rate Location/Type
10:48AM 32.8000 -96.7833 128° Southeast 234 269 3,300  Level Dallas / Fort Worth TRACON
10:48AM 32.8000 -96.7833 128° Southeast 234 269 3,300 2,700 Level Dallas / Fort Worth TRACON
10:49AM 32.7500 -96.7333 140° Southeast 272 313 6,000 2,700 Climbing Dallas / Fort Worth TRACON
10:49AM 32.7500 -96.7333 140° Southeast 272 313 6,000 2,220 Level Dallas / Fort Worth TRACON
10:50AM 32.6317 -96.8189 211° Southwest 331 381 10,000 2,220 Climbing Fort Worth Center
10:50AM 32.6317 -96.8189 211° Southwest 331 381 10,000 2,400 Level Fort Worth Center
10:51AM 32.5903 -96.9203 244° Southwest 344 396 12,400 2,400 Climbing Fort Worth Center
10:51AM 32.5903 -96.9203 244° Southwest 344 396 12,400 2,580 Level Fort Worth Center
10:52AM 32.6031 -97.0336 278° West 333 383 15,000 2,580 Climbing Fort Worth Center
10:52AM 32.6031 -97.0336 278° West 333 383 15,000 2,460 Level Fort Worth Center
10:53AM 32.6203 -97.1519 280° West 365 420 17,500 2,460 Climbing Fort Worth Center
10:53AM 32.6203 -97.1519 280° West 365 420 17,500 2,160 Level Fort Worth Center
10:54AM 32.6350 -97.2778 278° West 379 436 19,700 2,160 Climbing Fort Worth Center
10:54AM 32.6350 -97.2778 278° West 379 436 19,700 1,800 Level Fort Worth Center
10:55AM 32.6517 -97.4011 279° West 384 442 21,500 1,800 Climbing Fort Worth Center
10:55AM 32.6517 -97.4011 279° West 384 442 21,500 1,500 Level Fort Worth Center
10:56AM 32.6558 -97.5319 272° West 396 456 23,000 1,500 Climbing Fort Worth Center
10:56AM 32.6558 -97.5319 272° West 396 456 23,000 1,380 Level Fort Worth Center
10:57AM 32.6472 -97.6750 266° West 412 474 24,400 1,380 Climbing Fort Worth Center
10:57AM 32.6472 -97.6750 266° West 412 474 24,400 1,260 Level Fort Worth Center
10:58AM 32.6386 -97.8131 266° West 425 489 25,700 1,260 Climbing Fort Worth Center
10:58AM 32.6386 -97.8131 266° West 425 489 25,700 1,380 Level Fort Worth Center
10:59AM 32.6275 -97.9561 265° West 430 495 27,100 1,380 Climbing Fort Worth Center
10:59AM 32.6275 -97.9561 265° West 430 495 27,100 1,080 Level Fort Worth Center
11:00AM 32.6186 -98.1042 266° West 437 503 28,200 1,080 Climbing Fort Worth Center
11:00AM 32.6186 -98.1042 266° West 437 503 28,200 1,200 Level Fort Worth Center
11:01AM 32.6072 -98.2544 265° West 450 518 29,400 1,200 Climbing Fort Worth Center
11:01AM 32.6072 -98.2544 265° West 450 518 29,400 1,260 Level Fort Worth Center
11:02AM 32.5956 -98.4047 265° West 455 524 30,700 1,260 Climbing Fort Worth Center
11:02AM 32.5956 -98.4047 265° West 455 524 30,700 1,260 Level Fort Worth Center
11:03AM 32.5842 -98.5303 264° West 455 524 32,000 1,260 Climbing Fort Worth Center
11:03AM 32.5842 -98.5303 264° West 455 524 32,000 1,200 Level Fort Worth Center
11:04AM 32.5722 -98.6781 265° West 450 518 33,200 1,200 Climbing Fort Worth Center
11:04AM 32.5722 -98.6781 265° West 450 518 33,200 1,380 Level Fort Worth Center
11:05AM 32.5644 -98.8258 266° West 450 518 34,600 1,380 Climbing Fort Worth Center
11:05AM 32.5644 -98.8258 266° West 450 518 34,600 1,080 Level Fort Worth Center
11:06AM 32.5522 -98.9636 264° West 445 512 35,700 1,080 Climbing Fort Worth Center
11:06AM 32.5522 -98.9636 264° West 445 512 35,700 300 Level Fort Worth Center
11:07AM 32.5422 -99.1064 265° West 440 506 36,000 300 Climbing Fort Worth Center
11:07AM 32.5422 -99.1064 265° West 440 506 36,000  Level Fort Worth Center
11:08AM 32.5297 -99.2492 264° West 440 506 36,000  Level Fort Worth Center
11:08AM 32.5297 -99.2492 264° West 440 506 36,000  Level Fort Worth Center
11:09AM 32.5169 -99.3942 264° West 440 506 36,000  Level Fort Worth Center
11:09AM 32.5169 -99.3942 264° West 440 506 36,000  Level Fort Worth Center
11:10AM 32.5064 -99.5417 265° West 440 506 36,000  Level Fort Worth Center
11:10AM 32.5064 -99.5417 265° West 440 506 36,000  Level Fort Worth Center
11:11AM 32.4933 -99.6844 264° West 440 506 36,000  Level Fort Worth Center
11:11AM 32.4933 -99.6844 264° West 440 506 36,000  Level Fort Worth Center
11:12AM 32.4781 -99.8292 263° West 445 512 36,000  Level Fort Worth Center
11:12AM 32.4781 -99.8292 263° West 445 512 36,000  Level Fort Worth Center
11:13AM 32.4669 -99.9767 265° West 445 512 36,000  Level Fort Worth Center
11:13AM 32.4669 -99.9767 265° West 445 512 36,000  Level Fort Worth Center
11:14AM 32.4531 -100.1339 264° West 445 512 36,000  Level Fort Worth Center
11:14AM 32.4531 -100.1339 264° West 445 512 36,000  Level Fort Worth Center
11:15AM 32.4414 -100.2811 265° West 445 512 36,000  Level Fort Worth Center
11:15AM 32.4414 -100.2811 265° West 445 512 36,000  Level Fort Worth Center
11:16AM 32.4278 -100.4233 264° West 445 512 36,000  Level Fort Worth Center
11:16AM 32.4278 -100.4233 264° West 445 512 36,000  Level Fort Worth Center
11:17AM 32.4158 -100.5683 264° West 445 512 36,000  Level Fort Worth Center
11:17AM 32.4158 -100.5683 264° West 445 512 36,000  Level Fort Worth Center
11:18AM 32.4017 -100.7153 264° West 445 512 36,000  Level Fort Worth Center
11:18AM 32.4017 -100.7153 264° West 445 512 36,000  Level Fort Worth Center
11:19AM 32.3872 -100.8575 263° West 445 512 36,000  Level Fort Worth Center
11:19AM 32.3872 -100.8575 263° West 445 512 36,000  Level Fort Worth Center
11:25AM 32.3050 -101.6831 263° West 445 512 36,000  Level Albuquerque Center
11:26AM 32.2889 -101.8286 263° West 446 513 36,000  Level Albuquerque Center
11:27AM 32.2728 -101.9742 263° West 447 514 36,000  Level Albuquerque Center
11:28AM 32.2561 -102.1208 262° West 448 516 36,000  Level Albuquerque Center
11:29AM 32.2347 -102.3081 262° West 445 512 36,000  Level Fort Worth Center
11:30AM 32.2186 -102.4544 263° West 450 518 36,000  Level Fort Worth Center
11:31AM 32.2022 -102.6008 263° West 450 518 36,000  Level Fort Worth Center
11:32AM 32.1878 -102.7472 263° West 455 524 36,000  Level Fort Worth Center
11:33AM 32.1711 -102.8875 262° West 448 516 36,000  Level Albuquerque Center
11:34AM 32.1542 -103.0325 262° West 446 513 36,000  Level Albuquerque Center
11:36AM 32.1367 -103.1783 262° West 447 514 36,000  Level Albuquerque Center
11:37AM 32.1200 -103.3228 262° West 447 514 36,000  Level Albuquerque Center
11:38AM 32.1022 -103.4664 262° West 444 511 36,000  Level Albuquerque Center
11:39AM 32.0842 -103.6111 262° West 445 512 36,000  Level Albuquerque Center
11:40AM 32.0658 -103.7553 262° West 444 511 36,000  Level Albuquerque Center
11:41AM 32.0486 -103.9292 263° West 446 513 36,000  Level Albuquerque Center
11:42AM 32.0308 -104.0722 262° West 445 512 36,000 -240 Level Albuquerque Center
11:43AM 32.0131 -104.2172 262° West 447 514 35,600 -720 Descending Albuquerque Center
11:44AM 31.9953 -104.3592 262° West 444 511 34,600 -1,020 Descending Albuquerque Center
11:45AM 31.9778 -104.5025 262° West 443 510 33,600 -1,140 Descending Albuquerque Center
11:46AM 31.9653 -104.6439 264° West 438 504 32,300 -2,460 Descending Albuquerque Center
11:47AM 31.9444 -104.8186 262° West 451 519 28,600 -3,000 Descending Albuquerque Center
11:48AM 31.9308 -104.9633 264° West 451 519 26,200 -2,340 Descending Albuquerque Center
11:49AM 31.9158 -105.1014 263° West 434 499 23,800 -2,340 Descending Albuquerque Center
11:50AM 31.9022 -105.2342 263° West 417 480 21,500 -2,280 Descending Albuquerque Center
11:51AM 31.8872 -105.3672 262° West 413 475 19,200 -2,220 Descending Albuquerque Center
11:52AM 31.8739 -105.4936 263° West 393 452 17,000 -2,640 Descending Albuquerque Center
11:53AM 31.8736 -105.6375 270° West 371 427 13,800 -2,580 Descending Albuquerque Center
11:54AM 31.8692 -105.7600 268° West 374 430 11,800 -1,620 Descending Albuquerque Center
11:55AM 31.8325 -105.8614 247° West 338 389 10,600 -1,020 Descending Albuquerque Center
11:56AM 31.8022 -105.9528 249° West 307 353 9,800 -1,020 Descending Albuquerque Center
11:57AM 31.7828 -106.0400 255° West 282 325 8,500 -1,080 Descending Albuquerque Center
11:58AM 31.7675 -106.1322 259° West 288 331 7,600 -540 Descending Albuquerque Center
11:59AM 31.7575 -106.2392 264° West 260 299 7,500 -180 Descending Albuquerque Center
12:00PM 31.7544 -106.3047 267° West 235 270 7,300 -660 Descending Albuquerque Center
12:01PM 31.7531 -106.3769 269° West 194 223 6,200 -720 Descending Albuquerque Center
12:02PM 31.7519 -106.4339 269° West 177 204 5,800 -960 Descending Albuquerque Center
12:03PM 31.7847 -106.4247 13° North 160 184 4,500 -960 Descending Albuquerque Center
12:04PM 31.8169 -106.3767 52° Northeast 153 176 3,900 -540 Descending Albuquerque Center
12:06PM 31.8072 -106.3764 33° Northeast  Level Estimated
12:13PM 31.8072 -106.3764 North  Level Estimated
12:14PM 31.8072 -106.3764 North  Level Estimated
12:15PM 31.8072 -106.3764 North  Level Estimated
12:16PM 31.8072 -106.3764 North  Level Estimated